createdAt,value
2019-05-10T00:04:47.565Z,12.40
2019-05-10T00:11:09.069Z,12.38
2019-05-10T00:17:22.115Z,12.31
2019-05-10T00:23:27.887Z,12.29
2019-05-10T00:29:33.671Z,12.28
2019-05-10T00:35:39.418Z,12.27
2019-05-10T00:41:45.334Z,12.32
2019-05-10T00:47:51.334Z,12.28
2019-05-10T00:53:57.049Z,12.23
2019-05-10T01:00:02.800Z,12.19
2019-05-10T01:06:08.628Z,12.14
2019-05-10T01:12:14.313Z,12.14
2019-05-10T01:18:20.136Z,12.10
2019-05-10T01:24:25.860Z,12.10
2019-05-10T01:30:31.572Z,12.09
2019-05-10T01:36:39.549Z,12.02
2019-05-10T01:42:45.310Z,12.02
2019-05-10T01:48:51.621Z,12.00
2019-05-10T01:54:57.939Z,11.99
2019-05-10T02:01:04.250Z,11.96
2019-05-10T02:07:09.970Z,11.94
2019-05-10T02:13:15.682Z,11.92
2019-05-10T02:19:22.751Z,11.93
2019-05-10T02:25:28.473Z,11.94
2019-05-10T02:31:34.219Z,11.95
2019-05-10T02:37:39.956Z,11.98
2019-05-10T02:43:46.016Z,12.01
2019-05-10T02:49:51.770Z,11.98
2019-05-10T02:55:58.870Z,12.02
2019-05-10T03:02:07.599Z,11.99
2019-05-10T03:08:16.415Z,12.00
2019-05-10T03:14:24.062Z,11.98
2019-05-10T03:20:31.397Z,11.91
2019-05-10T03:26:50.263Z,11.80
2019-05-10T03:32:49.469Z,11.76
2019-05-10T03:38:55.558Z,11.74
2019-05-10T03:45:01.284Z,11.68
2019-05-10T03:51:07.323Z,11.67
2019-05-10T03:57:14.664Z,11.62
2019-05-10T04:03:21.088Z,11.66
2019-05-10T04:09:27.038Z,11.57
2019-05-10T04:15:32.895Z,11.55
2019-05-10T04:21:38.631Z,11.49
2019-05-10T04:27:44.355Z,11.46
2019-05-10T04:33:50.203Z,11.44
2019-05-10T04:39:56.086Z,11.47
2019-05-10T04:46:01.894Z,11.50
2019-05-10T04:52:08.146Z,11.51
2019-05-10T04:58:13.876Z,11.48
2019-05-10T05:04:19.753Z,11.53
2019-05-10T05:10:25.524Z,11.60
2019-05-10T05:16:31.260Z,11.59
2019-05-10T05:22:37.083Z,11.67
2019-05-10T05:28:42.944Z,11.70
2019-05-10T05:34:48.700Z,11.78
2019-05-10T05:40:54.831Z,11.83
2019-05-10T05:47:04.421Z,11.78
2019-05-10T05:53:08.378Z,11.80
2019-05-10T05:59:17.346Z,11.93
2019-05-10T06:05:34.072Z,11.99
2019-05-10T06:11:35.137Z,12.14
2019-05-10T06:17:37.131Z,12.34
2019-05-10T06:23:43.700Z,12.69
2019-05-10T06:29:49.725Z,12.82
2019-05-10T06:35:55.482Z,12.78
2019-05-10T06:42:02.277Z,12.85
2019-05-10T06:48:08.132Z,13.10
2019-05-10T06:54:14.082Z,13.20
2019-05-10T07:00:20.197Z,13.31
2019-05-10T07:06:25.984Z,13.34
2019-05-10T07:12:31.743Z,13.35
2019-05-10T07:18:37.681Z,13.36
2019-05-10T07:24:43.487Z,13.47
2019-05-10T07:30:49.224Z,13.43
2019-05-10T07:36:55.558Z,13.52
2019-05-10T07:43:01.350Z,13.65
2019-05-10T07:49:07.252Z,13.78
2019-05-10T07:55:18.554Z,13.83
2019-05-10T08:01:29.114Z,14.05
2019-05-10T08:07:29.384Z,14.25
2019-05-10T08:13:35.571Z,14.54
2019-05-10T08:19:42.146Z,14.73
2019-05-10T08:25:47.869Z,14.80
2019-05-10T08:31:56.006Z,15.11
2019-05-10T08:38:04.551Z,15.30
2019-05-10T08:44:19.121Z,15.26
2019-05-10T08:50:42.216Z,15.25
2019-05-10T08:56:25.360Z,15.14
2019-05-10T09:02:32.873Z,15.08
2019-05-10T09:08:38.797Z,15.31
2019-05-10T09:14:48.827Z,15.39
2019-05-10T09:21:00.494Z,15.18
2019-05-10T09:27:02.658Z,15.07
2019-05-10T09:33:10.319Z,15.00
2019-05-10T09:39:21.331Z,15.16
2019-05-10T09:45:24.361Z,15.17
2019-05-10T09:51:33.093Z,15.03
2019-05-10T09:57:38.223Z,15.34
2019-05-10T10:03:44.980Z,15.54
2019-05-10T10:09:50.863Z,15.52
2019-05-10T10:15:58.121Z,15.72
2019-05-10T10:22:05.743Z,16.14
2019-05-10T10:28:16.977Z,16.32
2019-05-10T10:34:19.016Z,16.34
2019-05-10T10:40:24.852Z,16.25
2019-05-10T10:46:33.956Z,16.10
2019-05-10T10:52:38.202Z,16.03
2019-05-10T10:58:44.000Z,15.89
2019-05-10T11:04:49.912Z,15.88
2019-05-10T11:10:55.649Z,15.99
2019-05-10T11:17:01.360Z,16.36
2019-05-10T11:23:07.198Z,16.40
2019-05-10T11:29:13.929Z,16.27
2019-05-10T11:35:28.523Z,15.94
2019-05-10T11:41:28.314Z,15.51
2019-05-10T11:47:34.113Z,15.13
2019-05-10T11:53:41.471Z,14.88
2019-05-10T11:59:47.575Z,14.69
2019-05-10T12:06:04.361Z,14.37
2019-05-10T12:12:03.380Z,14.37
2019-05-10T12:18:14.712Z,14.29
2019-05-10T12:26:29.497Z,14.17
2019-05-10T12:30:29.594Z,14.06
2019-05-10T12:36:33.437Z,14.17
2019-05-10T12:42:41.581Z,14.26
2019-05-10T12:48:46.929Z,14.38
2019-05-10T12:54:53.303Z,14.64
2019-05-10T13:00:59.286Z,15.01
2019-05-10T13:07:05.094Z,15.50
2019-05-10T13:13:11.110Z,15.94
2019-05-10T13:19:20.122Z,16.44
2019-05-10T13:25:25.066Z,16.88
2019-05-10T13:31:30.901Z,17.25
2019-05-10T13:37:36.736Z,17.46
2019-05-10T13:43:42.669Z,17.56
2019-05-10T13:49:49.314Z,17.18
2019-05-10T13:55:55.241Z,16.85
2019-05-10T14:02:01.197Z,16.60
2019-05-10T14:08:07.059Z,16.47
2019-05-10T14:14:14.518Z,16.33
2019-05-10T14:20:25.047Z,16.18
2019-05-10T14:26:28.220Z,16.19
2019-05-10T14:32:34.108Z,15.31
2019-05-10T14:38:39.910Z,14.82
2019-05-10T14:44:45.631Z,14.66
2019-05-10T14:50:51.477Z,14.69
2019-05-10T14:56:57.242Z,14.73
2019-05-10T15:03:03.805Z,14.76
2019-05-10T15:09:20.237Z,15.05
2019-05-10T15:15:18.305Z,15.81
2019-05-10T15:21:24.099Z,16.81
2019-05-10T15:27:29.917Z,16.94
2019-05-10T15:33:35.784Z,17.55
2019-05-10T15:39:41.914Z,18.03
2019-05-10T15:45:52.455Z,18.50
2019-05-10T15:52:15.185Z,18.58
2019-05-10T15:58:03.705Z,17.68
2019-05-10T16:04:09.417Z,17.13
2019-05-10T16:10:15.679Z,16.62
2019-05-10T16:16:21.645Z,16.12
2019-05-10T16:22:30.382Z,15.86
2019-05-10T16:28:35.134Z,15.45
2019-05-10T16:34:40.879Z,14.31
2019-05-10T16:40:57.258Z,13.40
2019-05-10T16:46:54.140Z,13.19
2019-05-10T16:53:05.757Z,13.20
2019-05-10T16:59:07.806Z,13.12
2019-05-10T17:05:15.632Z,13.16
2019-05-10T17:11:21.149Z,13.17
2019-05-10T17:17:31.117Z,13.34
2019-05-10T17:23:34.455Z,13.51
2019-05-10T17:29:44.606Z,13.68
2019-05-10T17:35:47.727Z,13.88
2019-05-10T17:41:57.595Z,13.88
2019-05-10T17:48:08.066Z,13.89
2019-05-10T17:54:09.916Z,13.79
2019-05-10T18:00:17.405Z,13.65
2019-05-10T18:06:24.485Z,13.36
2019-05-10T18:12:30.510Z,13.30
2019-05-10T18:18:46.148Z,13.09
2019-05-10T18:24:44.425Z,12.95
2019-05-10T18:30:50.402Z,12.92
2019-05-10T18:36:56.285Z,12.81
2019-05-10T18:43:04.670Z,12.73
2019-05-10T18:49:10.009Z,12.52
2019-05-10T18:55:15.968Z,12.28
2019-05-10T19:01:21.897Z,12.02
2019-05-10T19:07:27.625Z,11.89
2019-05-10T19:13:40.156Z,11.79
2019-05-10T19:19:42.286Z,11.73
2019-05-10T19:25:51.693Z,11.77
2019-05-10T19:31:57.640Z,11.89
2019-05-10T19:38:03.685Z,11.82
2019-05-10T19:44:09.550Z,11.73
2019-05-10T19:50:16.050Z,11.71
2019-05-10T19:56:24.105Z,11.62
2019-05-10T20:02:30.007Z,11.50
2019-05-10T20:08:35.779Z,11.33
2019-05-10T20:14:41.810Z,11.30
2019-05-10T20:20:47.808Z,11.35
2019-05-10T20:26:53.527Z,11.19
2019-05-10T20:32:59.437Z,10.94
2019-05-10T20:39:07.384Z,10.76
2019-05-10T20:45:14.216Z,10.86
2019-05-10T20:51:20.672Z,10.94
2019-05-10T20:57:26.727Z,10.92
2019-05-10T21:03:32.629Z,10.86
2019-05-10T21:09:39.205Z,10.96
2019-05-10T21:15:45.031Z,10.92
2019-05-10T21:21:50.827Z,11.01
2019-05-10T21:27:56.600Z,11.09
2019-05-10T21:34:09.621Z,11.14
2019-05-10T21:40:10.943Z,11.15
2019-05-10T21:46:16.720Z,10.96
2019-05-10T21:52:22.731Z,10.70
2019-05-10T21:58:32.719Z,10.66
2019-05-10T22:04:38.441Z,10.62
2019-05-10T22:10:44.249Z,10.74
2019-05-10T22:16:50.120Z,10.88
2019-05-10T22:22:56.191Z,10.95
2019-05-10T22:29:02.097Z,10.86
2019-05-10T22:35:08.281Z,10.54
2019-05-10T22:41:14.370Z,10.43
2019-05-10T22:47:20.540Z,10.44
2019-05-10T22:53:26.349Z,10.47
2019-05-10T22:59:32.317Z,10.52
2019-05-10T23:05:38.201Z,10.43
2019-05-10T23:11:44.065Z,10.33
2019-05-10T23:17:49.763Z,10.35
2019-05-10T23:23:55.776Z,10.43
2019-05-10T23:30:01.637Z,10.49
2019-05-10T23:36:08.231Z,10.57
2019-05-10T23:42:13.984Z,10.62
2019-05-10T23:48:20.505Z,10.67
2019-05-10T23:54:26.478Z,10.63
